Praia Grande, Brazil
Current Conditions -  °F | °C
As of 4:35 PM on Saturday 20 Dec 2014 (Local Time) from SBCM Reporting Station
Thunderstorm Thunderstorm  
Wind Chill: 93°   Ceiling: Unl
Heat Index: 105°   Visibility: 6mi
Dew Point: 75°   Wind: 12mph
Humidity: 56%   Direction: 50°NE
Pressure: NA   Gusts: NA
Location:  29.2°S, 49.95°W
Report Text: SBCM 201835Z 05010KT 9999 3000NW TSRA SCT015 FEW020CB 34/24 Q1002
Loading
Personal Weather Stations






























Interactive Weather Map New forecast layout! Learn more

10-Day Weather Forecast

Advertisements
Track Severe Weather on mobile